sensor_id;sensor_type;location;lat;lon;timestamp;temperature;humidity
32614;DHT22;19031;51.400;6.770;2022-08-19T00:01:17;18.80;82.20
32614;DHT22;19031;51.400;6.770;2022-08-19T00:03:42;18.80;83.40
32614;DHT22;19031;51.400;6.770;2022-08-19T00:06:08;18.70;86.80
32614;DHT22;19031;51.400;6.770;2022-08-19T00:08:35;18.70;87.00
32614;DHT22;19031;51.400;6.770;2022-08-19T00:11:01;18.70;84.80
32614;DHT22;19031;51.400;6.770;2022-08-19T00:13:26;18.70;83.60
32614;DHT22;19031;51.400;6.770;2022-08-19T00:15:56;18.60;82.90
32614;DHT22;19031;51.400;6.770;2022-08-19T00:18:24;18.60;82.00
32614;DHT22;19031;51.400;6.770;2022-08-19T00:20:50;18.60;84.50
32614;DHT22;19031;51.400;6.770;2022-08-19T00:23:15;18.60;90.60
32614;DHT22;19031;51.400;6.770;2022-08-19T00:25:41;18.60;89.50
32614;DHT22;19031;51.400;6.770;2022-08-19T00:28:07;18.60;86.80
32614;DHT22;19031;51.400;6.770;2022-08-19T00:30:32;18.50;83.80
32614;DHT22;19031;51.400;6.770;2022-08-19T00:32:58;18.50;85.40
32614;DHT22;19031;51.400;6.770;2022-08-19T00:35:24;18.50;87.00
32614;DHT22;19031;51.400;6.770;2022-08-19T00:37:52;18.40;87.30
32614;DHT22;19031;51.400;6.770;2022-08-19T00:40:18;18.50;85.40
32614;DHT22;19031;51.400;6.770;2022-08-19T00:42:45;18.30;92.80
32614;DHT22;19031;51.400;6.770;2022-08-19T00:45:16;18.40;89.40
32614;DHT22;19031;51.400;6.770;2022-08-19T00:47:44;18.30;90.90
32614;DHT22;19031;51.400;6.770;2022-08-19T00:50:12;18.30;91.70
32614;DHT22;19031;51.400;6.770;2022-08-19T00:52:43;18.40;92.90
32614;DHT22;19031;51.400;6.770;2022-08-19T00:55:14;18.40;93.70
32614;DHT22;19031;51.400;6.770;2022-08-19T00:57:44;18.30;92.70
32614;DHT22;19031;51.400;6.770;2022-08-19T01:00:13;18.30;92.70
32614;DHT22;19031;51.400;6.770;2022-08-19T01:02:41;18.30;94.80
32614;DHT22;19031;51.400;6.770;2022-08-19T01:05:10;18.30;93.00
32614;DHT22;19031;51.400;6.770;2022-08-19T01:07:38;18.10;94.00
32614;DHT22;19031;51.400;6.770;2022-08-19T01:10:11;18.10;95.30
32614;DHT22;19031;51.400;6.770;2022-08-19T01:12:39;18.10;92.90
32614;DHT22;19031;51.400;6.770;2022-08-19T01:15:10;18.10;92.40
32614;DHT22;19031;51.400;6.770;2022-08-19T01:17:39;18.10;91.30
32614;DHT22;19031;51.400;6.770;2022-08-19T01:20:07;18.10;90.00
32614;DHT22;19031;51.400;6.770;2022-08-19T01:22:40;18.10;90.40
32614;DHT22;19031;51.400;6.770;2022-08-19T01:25:07;18.00;90.30
32614;DHT22;19031;51.400;6.770;2022-08-19T01:27:41;18.00;88.70
32614;DHT22;19031;51.400;6.770;2022-08-19T01:30:09;18.00;88.20
32614;DHT22;19031;51.400;6.770;2022-08-19T01:32:35;18.00;92.80
32614;DHT22;19031;51.400;6.770;2022-08-19T01:35:03;18.00;94.00
32614;DHT22;19031;51.400;6.770;2022-08-19T01:37:29;17.90;95.10
32614;DHT22;19031;51.400;6.770;2022-08-19T01:39:56;17.90;96.40
32614;DHT22;19031;51.400;6.770;2022-08-19T01:42:21;17.90;94.50
32614;DHT22;19031;51.400;6.770;2022-08-19T01:44:47;17.90;92.60
32614;DHT22;19031;51.400;6.770;2022-08-19T01:47:13;17.80;92.90
32614;DHT22;19031;51.400;6.770;2022-08-19T01:49:38;17.80;92.70
32614;DHT22;19031;51.400;6.770;2022-08-19T01:52:05;17.80;94.40
32614;DHT22;19031;51.400;6.770;2022-08-19T01:54:31;17.70;93.50
32614;DHT22;19031;51.400;6.770;2022-08-19T01:57:06;17.80;93.70
32614;DHT22;19031;51.400;6.770;2022-08-19T01:59:34;17.70;94.10
32614;DHT22;19031;51.400;6.770;2022-08-19T02:02:02;17.70;96.90
32614;DHT22;19031;51.400;6.770;2022-08-19T02:04:29;17.70;94.80
32614;DHT22;19031;51.400;6.770;2022-08-19T02:06:55;17.70;93.20
32614;DHT22;19031;51.400;6.770;2022-08-19T02:09:20;17.70;93.70
32614;DHT22;19031;51.400;6.770;2022-08-19T02:11:46;17.70;96.30
32614;DHT22;19031;51.400;6.770;2022-08-19T02:14:12;17.60;95.70
32614;DHT22;19031;51.400;6.770;2022-08-19T02:16:38;17.60;95.00
32614;DHT22;19031;51.400;6.770;2022-08-19T02:19:05;17.60;94.80
32614;DHT22;19031;51.400;6.770;2022-08-19T02:21:31;17.60;93.60
32614;DHT22;19031;51.400;6.770;2022-08-19T02:23:57;17.60;94.00
32614;DHT22;19031;51.400;6.770;2022-08-19T02:26:24;17.60;92.40
32614;DHT22;19031;51.400;6.770;2022-08-19T02:28:52;17.60;91.90
32614;DHT22;19031;51.400;6.770;2022-08-19T02:31:20;17.50;92.90
32614;DHT22;19031;51.400;6.770;2022-08-19T02:33:47;17.60;93.40
32614;DHT22;19031;51.400;6.770;2022-08-19T02:36:14;17.50;95.50
32614;DHT22;19031;51.400;6.770;2022-08-19T02:38:40;17.50;94.60
32614;DHT22;19031;51.400;6.770;2022-08-19T02:41:12;17.50;97.70
32614;DHT22;19031;51.400;6.770;2022-08-19T02:43:38;17.50;96.60
32614;DHT22;19031;51.400;6.770;2022-08-19T02:46:20;17.40;98.90
32614;DHT22;19031;51.400;6.770;2022-08-19T02:48:50;17.40;97.00
32614;DHT22;19031;51.400;6.770;2022-08-19T02:51:37;17.40;96.90
32614;DHT22;19031;51.400;6.770;2022-08-19T02:54:04;17.40;98.90
32614;DHT22;19031;51.400;6.770;2022-08-19T02:56:30;17.40;99.90
32614;DHT22;19031;51.400;6.770;2022-08-19T02:58:57;17.50;99.90
32614;DHT22;19031;51.400;6.770;2022-08-19T03:01:32;17.40;99.90
32614;DHT22;19031;51.400;6.770;2022-08-19T03:04:00;17.40;99.90
32614;DHT22;19031;51.400;6.770;2022-08-19T03:06:27;17.30;99.90
32614;DHT22;19031;51.400;6.770;2022-08-19T03:08:54;17.40;99.50
32614;DHT22;19031;51.400;6.770;2022-08-19T03:11:31;17.40;97.90
32614;DHT22;19031;51.400;6.770;2022-08-19T03:13:58;17.40;98.20
32614;DHT22;19031;51.400;6.770;2022-08-19T03:16:25;17.40;97.30
32614;DHT22;19031;51.400;6.770;2022-08-19T03:18:52;17.30;99.90
32614;DHT22;19031;51.400;6.770;2022-08-19T03:21:24;17.30;99.90
32614;DHT22;19031;51.400;6.770;2022-08-19T03:23:54;17.40;99.90
32614;DHT22;19031;51.400;6.770;2022-08-19T03:26:19;17.30;99.90
32614;DHT22;19031;51.400;6.770;2022-08-19T03:28:46;17.40;99.80
32614;DHT22;19031;51.400;6.770;2022-08-19T03:31:19;17.40;99.90
32614;DHT22;19031;51.400;6.770;2022-08-19T03:33:48;17.30;99.30
32614;DHT22;19031;51.400;6.770;2022-08-19T03:36:20;17.40;98.10
32614;DHT22;19031;51.400;6.770;2022-08-19T03:38:49;17.30;99.70
32614;DHT22;19031;51.400;6.770;2022-08-19T03:41:21;17.40;99.90
32614;DHT22;19031;51.400;6.770;2022-08-19T03:43:47;17.40;99.90
32614;DHT22;19031;51.400;6.770;2022-08-19T03:46:20;17.40;99.90
32614;DHT22;19031;51.400;6.770;2022-08-19T03:48:46;17.40;99.90
32614;DHT22;19031;51.400;6.770;2022-08-19T03:51:21;17.50;99.40
32614;DHT22;19031;51.400;6.770;2022-08-19T03:53:47;17.40;97.90
32614;DHT22;19031;51.400;6.770;2022-08-19T03:56:13;17.40;98.70
32614;DHT22;19031;51.400;6.770;2022-08-19T03:58:40;17.40;98.20
32614;DHT22;19031;51.400;6.770;2022-08-19T04:01:15;17.40;96.00
32614;DHT22;19031;51.400;6.770;2022-08-19T04:03:41;17.30;94.60
32614;DHT22;19031;51.400;6.770;2022-08-19T04:06:18;17.40;96.10
32614;DHT22;19031;51.400;6.770;2022-08-19T04:08:47;17.40;94.70
32614;DHT22;19031;51.400;6.770;2022-08-19T04:11:15;17.40;96.50
32614;DHT22;19031;51.400;6.770;2022-08-19T04:13:41;17.30;98.80
32614;DHT22;19031;51.400;6.770;2022-08-19T04:16:10;17.20;97.70
32614;DHT22;19031;51.400;6.770;2022-08-19T04:18:37;17.20;96.90
32614;DHT22;19031;51.400;6.770;2022-08-19T04:21:04;17.20;98.20
32614;DHT22;19031;51.400;6.770;2022-08-19T04:23:30;17.10;96.80
32614;DHT22;19031;51.400;6.770;2022-08-19T04:25:56;17.20;93.80
32614;DHT22;19031;51.400;6.770;2022-08-19T04:28:22;17.10;93.20
32614;DHT22;19031;51.400;6.770;2022-08-19T04:30:52;17.20;93.50
32614;DHT22;19031;51.400;6.770;2022-08-19T04:33:20;17.10;97.80
32614;DHT22;19031;51.400;6.770;2022-08-19T04:35:48;17.10;98.40
32614;DHT22;19031;51.400;6.770;2022-08-19T04:38:15;17.10;99.90
32614;DHT22;19031;51.400;6.770;2022-08-19T04:40:51;17.10;99.90
32614;DHT22;19031;51.400;6.770;2022-08-19T04:43:37;17.10;99.90
32614;DHT22;19031;51.400;6.770;2022-08-19T04:46:08;17.10;99.50
32614;DHT22;19031;51.400;6.770;2022-08-19T04:48:36;17.10;98.40
32614;DHT22;19031;51.400;6.770;2022-08-19T04:51:07;17.10;99.90
32614;DHT22;19031;51.400;6.770;2022-08-19T04:53:34;17.00;99.10
32614;DHT22;19031;51.400;6.770;2022-08-19T04:56:13;17.10;99.20
32614;DHT22;19031;51.400;6.770;2022-08-19T04:58:40;17.00;99.40
32614;DHT22;19031;51.400;6.770;2022-08-19T05:01:14;17.00;99.90
32614;DHT22;19031;51.400;6.770;2022-08-19T05:03:42;17.10;99.90
32614;DHT22;19031;51.400;6.770;2022-08-19T05:06:11;17.10;99.90
32614;DHT22;19031;51.400;6.770;2022-08-19T05:08:39;17.10;99.90
32614;DHT22;19031;51.400;6.770;2022-08-19T05:11:18;17.20;99.90
32614;DHT22;19031;51.400;6.770;2022-08-19T05:13:46;17.20;99.90
32614;DHT22;19031;51.400;6.770;2022-08-19T05:16:15;17.30;99.90
32614;DHT22;19031;51.400;6.770;2022-08-19T05:18:41;17.30;99.90
32614;DHT22;19031;51.400;6.770;2022-08-19T05:21:27;17.30;99.90
32614;DHT22;19031;51.400;6.770;2022-08-19T05:24:12;17.40;99.90
32614;DHT22;19031;51.400;6.770;2022-08-19T05:26:42;17.40;99.90
32614;DHT22;19031;51.400;6.770;2022-08-19T05:29:09;17.50;99.90
32614;DHT22;19031;51.400;6.770;2022-08-19T05:31:36;17.50;99.90
32614;DHT22;19031;51.400;6.770;2022-08-19T05:34:04;17.60;99.90
32614;DHT22;19031;51.400;6.770;2022-08-19T05:36:41;17.60;99.90
32614;DHT22;19031;51.400;6.770;2022-08-19T05:39:12;17.70;99.90
32614;DHT22;19031;51.400;6.770;2022-08-19T05:41:47;17.70;99.90
32614;DHT22;19031;51.400;6.770;2022-08-19T05:44:14;17.90;99.90
32614;DHT22;19031;51.400;6.770;2022-08-19T05:46:40;17.90;99.90
32614;DHT22;19031;51.400;6.770;2022-08-19T05:49:08;18.00;99.90
32614;DHT22;19031;51.400;6.770;2022-08-19T05:51:35;18.20;99.90
32614;DHT22;19031;51.400;6.770;2022-08-19T05:54:03;18.30;99.90
32614;DHT22;19031;51.400;6.770;2022-08-19T05:56:30;18.40;99.90
32614;DHT22;19031;51.400;6.770;2022-08-19T05:58:56;18.50;99.90
32614;DHT22;19031;51.400;6.770;2022-08-19T06:01:25;18.50;99.90
32614;DHT22;19031;51.400;6.770;2022-08-19T06:03:50;18.60;99.90
32614;DHT22;19031;51.400;6.770;2022-08-19T06:06:16;18.70;99.90
32614;DHT22;19031;51.400;6.770;2022-08-19T06:08:43;18.90;99.90
32614;DHT22;19031;51.400;6.770;2022-08-19T06:11:32;18.90;99.90
32614;DHT22;19031;51.400;6.770;2022-08-19T06:14:01;19.00;99.90
32614;DHT22;19031;51.400;6.770;2022-08-19T06:16:28;19.10;99.90
32614;DHT22;19031;51.400;6.770;2022-08-19T06:18:55;19.20;99.90
32614;DHT22;19031;51.400;6.770;2022-08-19T06:21:24;19.10;99.90
32614;DHT22;19031;51.400;6.770;2022-08-19T06:23:51;19.30;99.90
32614;DHT22;19031;51.400;6.770;2022-08-19T06:26:18;19.40;99.90
32614;DHT22;19031;51.400;6.770;2022-08-19T06:28:45;19.50;99.90
32614;DHT22;19031;51.400;6.770;2022-08-19T06:31:21;19.60;99.90
32614;DHT22;19031;51.400;6.770;2022-08-19T06:33:47;19.80;99.90
32614;DHT22;19031;51.400;6.770;2022-08-19T06:36:21;20.00;99.90
32614;DHT22;19031;51.400;6.770;2022-08-19T06:38:56;20.10;98.30
32614;DHT22;19031;51.400;6.770;2022-08-19T06:41:25;20.20;98.50
32614;DHT22;19031;51.400;6.770;2022-08-19T06:43:51;20.30;98.00
32614;DHT22;19031;51.400;6.770;2022-08-19T06:46:17;20.40;97.00
32614;DHT22;19031;51.400;6.770;2022-08-19T06:48:47;20.60;96.30
32614;DHT22;19031;51.400;6.770;2022-08-19T06:51:15;20.60;94.20
32614;DHT22;19031;51.400;6.770;2022-08-19T06:53:43;20.70;94.80
32614;DHT22;19031;51.400;6.770;2022-08-19T06:56:13;20.90;94.70
32614;DHT22;19031;51.400;6.770;2022-08-19T06:58:39;21.00;94.60
32614;DHT22;19031;51.400;6.770;2022-08-19T07:01:05;21.00;92.90
32614;DHT22;19031;51.400;6.770;2022-08-19T07:03:34;21.10;90.60
32614;DHT22;19031;51.400;6.770;2022-08-19T07:06:09;21.30;89.30
32614;DHT22;19031;51.400;6.770;2022-08-19T07:08:36;21.30;89.00
32614;DHT22;19031;51.400;6.770;2022-08-19T07:11:07;21.40;87.00
32614;DHT22;19031;51.400;6.770;2022-08-19T07:13:34;21.40;85.80
32614;DHT22;19031;51.400;6.770;2022-08-19T07:16:11;21.60;81.60
32614;DHT22;19031;51.400;6.770;2022-08-19T07:18:38;21.60;84.40
32614;DHT22;19031;51.400;6.770;2022-08-19T07:21:17;21.90;78.40
32614;DHT22;19031;51.400;6.770;2022-08-19T07:23:44;22.00;70.10
32614;DHT22;19031;51.400;6.770;2022-08-19T07:26:20;22.00;67.80
32614;DHT22;19031;51.400;6.770;2022-08-19T07:28:49;22.30;61.50
32614;DHT22;19031;51.400;6.770;2022-08-19T07:31:18;22.50;59.40
32614;DHT22;19031;51.400;6.770;2022-08-19T07:33:46;22.80;50.10
32614;DHT22;19031;51.400;6.770;2022-08-19T07:36:15;23.00;42.00
32614;DHT22;19031;51.400;6.770;2022-08-19T07:38:43;23.30;29.70
32614;DHT22;19031;51.400;6.770;2022-08-19T07:41:15;23.40;14.70
32614;DHT22;19031;51.400;6.770;2022-08-19T07:43:41;23.50;8.40
32614;DHT22;19031;51.400;6.770;2022-08-19T07:46:09;23.70;5.80
32614;DHT22;19031;51.400;6.770;2022-08-19T07:48:35;23.80;9.50
32614;DHT22;19031;51.400;6.770;2022-08-19T07:51:03;24.10;3.60
32614;DHT22;19031;51.400;6.770;2022-08-19T07:53:30;24.40;1.00
32614;DHT22;19031;51.400;6.770;2022-08-19T07:55:56;24.60;1.00
32614;DHT22;19031;51.400;6.770;2022-08-19T07:58:30;24.90;1.00
32614;DHT22;19031;51.400;6.770;2022-08-19T08:00:56;25.20;1.00
32614;DHT22;19031;51.400;6.770;2022-08-19T08:03:23;25.30;1.00
32614;DHT22;19031;51.400;6.770;2022-08-19T08:06:09;25.40;1.00
32614;DHT22;19031;51.400;6.770;2022-08-19T08:08:53;25.30;1.00
32614;DHT22;19031;51.400;6.770;2022-08-19T08:11:51;25.50;1.00
32614;DHT22;19031;51.400;6.770;2022-08-19T08:14:25;25.80;1.00
32614;DHT22;19031;51.400;6.770;2022-08-19T08:16:51;25.90;99.90
32614;DHT22;19031;51.400;6.770;2022-08-19T08:19:19;25.90;99.90
32614;DHT22;19031;51.400;6.770;2022-08-19T08:21:46;26.10;99.90
32614;DHT22;19031;51.400;6.770;2022-08-19T08:24:12;26.20;99.90
32614;DHT22;19031;51.400;6.770;2022-08-19T08:26:39;26.30;99.90
32614;DHT22;19031;51.400;6.770;2022-08-19T08:29:04;26.20;99.90
32614;DHT22;19031;51.400;6.770;2022-08-19T08:31:32;26.50;99.90
32614;DHT22;19031;51.400;6.770;2022-08-19T08:33:59;26.40;99.90
32614;DHT22;19031;51.400;6.770;2022-08-19T08:36:25;26.20;99.90
32614;DHT22;19031;51.400;6.770;2022-08-19T08:38:51;26.10;99.90
32614;DHT22;19031;51.400;6.770;2022-08-19T08:41:34;26.20;99.90
32614;DHT22;19031;51.400;6.770;2022-08-19T08:44:03;26.10;99.90
32614;DHT22;19031;51.400;6.770;2022-08-19T08:46:46;25.90;99.90
32614;DHT22;19031;51.400;6.770;2022-08-19T08:49:43;25.80;99.90
32614;DHT22;19031;51.400;6.770;2022-08-19T08:52:23;26.10;99.90
32614;DHT22;19031;51.400;6.770;2022-08-19T08:54:53;26.30;99.90
32614;DHT22;19031;51.400;6.770;2022-08-19T08:59:49;26.30;99.90
32614;DHT22;19031;51.400;6.770;2022-08-19T09:02:18;26.40;99.90
32614;DHT22;19031;51.400;6.770;2022-08-19T09:04:44;26.50;99.90
32614;DHT22;19031;51.400;6.770;2022-08-19T09:09:54;26.60;99.90
32614;DHT22;19031;51.400;6.770;2022-08-19T09:15:03;27.00;92.60
32614;DHT22;19031;51.400;6.770;2022-08-19T09:17:30;26.90;41.00
32614;DHT22;19031;51.400;6.770;2022-08-19T09:19:59;26.70;5.90
32614;DHT22;19031;51.400;6.770;2022-08-19T09:22:29;26.70;31.30
32614;DHT22;19031;51.400;6.770;2022-08-19T09:24:55;26.80;1.00
32614;DHT22;19031;51.400;6.770;2022-08-19T09:27:22;26.90;87.40
32614;DHT22;19031;51.400;6.770;2022-08-19T09:29:50;27.10;1.00
32614;DHT22;19031;51.400;6.770;2022-08-19T09:32:15;27.30;99.90
32614;DHT22;19031;51.400;6.770;2022-08-19T09:34:42;27.50;99.90
32614;DHT22;19031;51.400;6.770;2022-08-19T09:37:08;27.90;99.90
32614;DHT22;19031;51.400;6.770;2022-08-19T09:39:34;28.30;99.90
32614;DHT22;19031;51.400;6.770;2022-08-19T09:42:00;29.00;99.90
32614;DHT22;19031;51.400;6.770;2022-08-19T09:44:25;29.40;2.70
32614;DHT22;19031;51.400;6.770;2022-08-19T09:46:51;29.30;99.90
32614;DHT22;19031;51.400;6.770;2022-08-19T09:49:18;29.70;99.90
32614;DHT22;19031;51.400;6.770;2022-08-19T09:51:45;29.60;50.40
32614;DHT22;19031;51.400;6.770;2022-08-19T09:54:14;29.30;43.30
32614;DHT22;19031;51.400;6.770;2022-08-19T09:56:40;28.90;99.90
32614;DHT22;19031;51.400;6.770;2022-08-19T09:59:06;28.70;99.90
32614;DHT22;19031;51.400;6.770;2022-08-19T10:01:32;28.80;99.90
32614;DHT22;19031;51.400;6.770;2022-08-19T10:03:59;28.80;78.30
32614;DHT22;19031;51.400;6.770;2022-08-19T10:06:27;29.10;99.90
32614;DHT22;19031;51.400;6.770;2022-08-19T10:08:55;29.40;99.90
32614;DHT22;19031;51.400;6.770;2022-08-19T10:11:21;29.80;99.90
32614;DHT22;19031;51.400;6.770;2022-08-19T10:13:47;29.40;99.90
32614;DHT22;19031;51.400;6.770;2022-08-19T10:16:16;29.70;1.00
32614;DHT22;19031;51.400;6.770;2022-08-19T10:18:43;29.90;53.70
32614;DHT22;19031;51.400;6.770;2022-08-19T10:21:11;30.30;99.90
32614;DHT22;19031;51.400;6.770;2022-08-19T10:23:38;30.60;99.90
32614;DHT22;19031;51.400;6.770;2022-08-19T10:26:06;30.60;99.90
32614;DHT22;19031;51.400;6.770;2022-08-19T10:28:36;30.30;99.90
32614;DHT22;19031;51.400;6.770;2022-08-19T10:31:13;30.10;99.90
32614;DHT22;19031;51.400;6.770;2022-08-19T10:33:40;29.80;99.90
32614;DHT22;19031;51.400;6.770;2022-08-19T10:36:13;29.80;65.20
32614;DHT22;19031;51.400;6.770;2022-08-19T10:38:43;29.40;99.90
32614;DHT22;19031;51.400;6.770;2022-08-19T10:41:31;29.60;99.90
32614;DHT22;19031;51.400;6.770;2022-08-19T10:44:00;29.70;97.80
32614;DHT22;19031;51.400;6.770;2022-08-19T10:46:27;30.00;91.90
32614;DHT22;19031;51.400;6.770;2022-08-19T10:48:54;30.20;1.00
32614;DHT22;19031;51.400;6.770;2022-08-19T10:51:21;30.40;99.90
32614;DHT22;19031;51.400;6.770;2022-08-19T10:54:05;30.50;84.10
32614;DHT22;19031;51.400;6.770;2022-08-19T10:56:32;30.70;99.90
32614;DHT22;19031;51.400;6.770;2022-08-19T10:59:24;31.10;38.90
32614;DHT22;19031;51.400;6.770;2022-08-19T11:01:54;31.50;2.50
32614;DHT22;19031;51.400;6.770;2022-08-19T11:04:24;31.60;99.90
32614;DHT22;19031;51.400;6.770;2022-08-19T11:06:49;31.90;99.90
32614;DHT22;19031;51.400;6.770;2022-08-19T11:09:18;32.00;99.90
32614;DHT22;19031;51.400;6.770;2022-08-19T11:11:44;32.00;31.70
32614;DHT22;19031;51.400;6.770;2022-08-19T11:14:12;32.20;59.70
32614;DHT22;19031;51.400;6.770;2022-08-19T11:16:39;32.80;1.00
32614;DHT22;19031;51.400;6.770;2022-08-19T11:19:07;32.80;99.90
32614;DHT22;19031;51.400;6.770;2022-08-19T11:21:42;32.90;99.90
32614;DHT22;19031;51.400;6.770;2022-08-19T11:24:19;32.90;99.90
32614;DHT22;19031;51.400;6.770;2022-08-19T11:26:46;32.00;99.90
32614;DHT22;19031;51.400;6.770;2022-08-19T11:29:15;32.20;99.90
32614;DHT22;19031;51.400;6.770;2022-08-19T11:31:43;32.50;99.90
32614;DHT22;19031;51.400;6.770;2022-08-19T11:34:12;32.20;99.90
32614;DHT22;19031;51.400;6.770;2022-08-19T11:36:40;31.70;99.90
32614;DHT22;19031;51.400;6.770;2022-08-19T11:39:07;31.10;99.90
32614;DHT22;19031;51.400;6.770;2022-08-19T11:41:33;30.60;99.90
32614;DHT22;19031;51.400;6.770;2022-08-19T11:43:59;30.70;1.00
32614;DHT22;19031;51.400;6.770;2022-08-19T11:46:26;30.80;99.90
32614;DHT22;19031;51.400;6.770;2022-08-19T11:49:00;31.10;99.90
32614;DHT22;19031;51.400;6.770;2022-08-19T11:51:27;31.70;99.90
32614;DHT22;19031;51.400;6.770;2022-08-19T11:53:57;32.20;99.90
32614;DHT22;19031;51.400;6.770;2022-08-19T11:56:24;32.30;99.90
32614;DHT22;19031;51.400;6.770;2022-08-19T11:58:51;32.70;99.90
32614;DHT22;19031;51.400;6.770;2022-08-19T12:01:20;32.70;99.90
32614;DHT22;19031;51.400;6.770;2022-08-19T12:03:48;33.20;99.90
32614;DHT22;19031;51.400;6.770;2022-08-19T12:06:17;34.00;99.90
32614;DHT22;19031;51.400;6.770;2022-08-19T12:08:44;34.20;99.90
32614;DHT22;19031;51.400;6.770;2022-08-19T12:11:12;34.40;87.00
32614;DHT22;19031;51.400;6.770;2022-08-19T12:13:39;34.50;44.80
32614;DHT22;19031;51.400;6.770;2022-08-19T12:16:09;33.90;11.30
32614;DHT22;19031;51.400;6.770;2022-08-19T12:18:37;33.90;17.00
32614;DHT22;19031;51.400;6.770;2022-08-19T12:21:03;33.70;3.60
32614;DHT22;19031;51.400;6.770;2022-08-19T12:23:29;34.20;1.00
32614;DHT22;19031;51.400;6.770;2022-08-19T12:25:54;34.40;1.00
32614;DHT22;19031;51.400;6.770;2022-08-19T12:28:24;34.90;1.00
32614;DHT22;19031;51.400;6.770;2022-08-19T12:30:50;35.00;1.00
32614;DHT22;19031;51.400;6.770;2022-08-19T12:33:17;34.70;1.00
32614;DHT22;19031;51.400;6.770;2022-08-19T12:35:45;34.50;1.00
32614;DHT22;19031;51.400;6.770;2022-08-19T12:38:12;35.00;1.00
32614;DHT22;19031;51.400;6.770;2022-08-19T12:40:38;35.20;1.00
32614;DHT22;19031;51.400;6.770;2022-08-19T12:43:08;34.90;1.00
32614;DHT22;19031;51.400;6.770;2022-08-19T12:45:35;34.80;1.00
32614;DHT22;19031;51.400;6.770;2022-08-19T12:48:00;34.90;1.00
32614;DHT22;19031;51.400;6.770;2022-08-19T12:50:26;35.00;99.90
32614;DHT22;19031;51.400;6.770;2022-08-19T12:52:52;35.00;99.90
32614;DHT22;19031;51.400;6.770;2022-08-19T12:55:18;35.10;99.90
32614;DHT22;19031;51.400;6.770;2022-08-19T12:57:44;35.10;99.90
32614;DHT22;19031;51.400;6.770;2022-08-19T13:00:16;35.50;99.90
32614;DHT22;19031;51.400;6.770;2022-08-19T13:02:46;35.10;99.90
32614;DHT22;19031;51.400;6.770;2022-08-19T13:05:18;35.30;99.90
32614;DHT22;19031;51.400;6.770;2022-08-19T13:07:49;35.60;99.90
32614;DHT22;19031;51.400;6.770;2022-08-19T13:10:17;35.90;99.90
32614;DHT22;19031;51.400;6.770;2022-08-19T13:12:45;35.80;99.90
32614;DHT22;19031;51.400;6.770;2022-08-19T13:15:11;36.20;99.90
32614;DHT22;19031;51.400;6.770;2022-08-19T13:17:38;36.60;99.90
32614;DHT22;19031;51.400;6.770;2022-08-19T13:20:05;36.60;99.90
32614;DHT22;19031;51.400;6.770;2022-08-19T13:22:33;35.90;99.90
32614;DHT22;19031;51.400;6.770;2022-08-19T13:24:58;34.90;99.90
32614;DHT22;19031;51.400;6.770;2022-08-19T13:27:24;34.60;99.90
32614;DHT22;19031;51.400;6.770;2022-08-19T13:29:49;33.90;99.90
32614;DHT22;19031;51.400;6.770;2022-08-19T13:32:34;33.80;99.90
32614;DHT22;19031;51.400;6.770;2022-08-19T13:35:18;33.50;99.90
32614;DHT22;19031;51.400;6.770;2022-08-19T13:37:44;33.70;99.90
32614;DHT22;19031;51.400;6.770;2022-08-19T13:40:23;34.00;99.90
32614;DHT22;19031;51.400;6.770;2022-08-19T13:42:51;34.10;99.90
32614;DHT22;19031;51.400;6.770;2022-08-19T13:45:19;33.80;99.90
32614;DHT22;19031;51.400;6.770;2022-08-19T13:47:53;33.70;99.90
32614;DHT22;19031;51.400;6.770;2022-08-19T13:50:20;33.90;99.90
32614;DHT22;19031;51.400;6.770;2022-08-19T13:52:47;33.90;99.90
32614;DHT22;19031;51.400;6.770;2022-08-19T13:55:14;33.90;99.90
32614;DHT22;19031;51.400;6.770;2022-08-19T13:57:40;33.90;99.90
32614;DHT22;19031;51.400;6.770;2022-08-19T14:00:13;34.00;99.90
32614;DHT22;19031;51.400;6.770;2022-08-19T14:02:40;34.30;99.90
32614;DHT22;19031;51.400;6.770;2022-08-19T14:05:08;34.30;99.90
32614;DHT22;19031;51.400;6.770;2022-08-19T14:07:34;34.00;99.90
32614;DHT22;19031;51.400;6.770;2022-08-19T14:10:00;33.90;99.90
32614;DHT22;19031;51.400;6.770;2022-08-19T14:12:25;33.40;99.90
32614;DHT22;19031;51.400;6.770;2022-08-19T14:14:51;33.60;99.90
32614;DHT22;19031;51.400;6.770;2022-08-19T14:17:16;33.80;99.90
32614;DHT22;19031;51.400;6.770;2022-08-19T14:19:43;33.80;99.90
32614;DHT22;19031;51.400;6.770;2022-08-19T14:22:09;34.00;99.90
32614;DHT22;19031;51.400;6.770;2022-08-19T14:24:36;34.10;99.90
32614;DHT22;19031;51.400;6.770;2022-08-19T14:27:02;34.20;99.90
32614;DHT22;19031;51.400;6.770;2022-08-19T14:29:28;34.10;99.90
32614;DHT22;19031;51.400;6.770;2022-08-19T14:31:54;33.40;99.90
32614;DHT22;19031;51.400;6.770;2022-08-19T14:34:21;32.90;99.90
32614;DHT22;19031;51.400;6.770;2022-08-19T14:36:47;32.80;99.90
32614;DHT22;19031;51.400;6.770;2022-08-19T14:39:13;32.80;99.90
32614;DHT22;19031;51.400;6.770;2022-08-19T14:41:40;33.10;99.90
32614;DHT22;19031;51.400;6.770;2022-08-19T14:44:06;33.10;99.90
32614;DHT22;19031;51.400;6.770;2022-08-19T14:46:31;32.70;99.90
32614;DHT22;19031;51.400;6.770;2022-08-19T14:48:57;32.50;99.90
32614;DHT22;19031;51.400;6.770;2022-08-19T14:51:24;32.70;99.90
32614;DHT22;19031;51.400;6.770;2022-08-19T14:53:52;32.50;99.90
32614;DHT22;19031;51.400;6.770;2022-08-19T14:56:21;32.10;99.90
32614;DHT22;19031;51.400;6.770;2022-08-19T14:58:48;32.40;99.90
32614;DHT22;19031;51.400;6.770;2022-08-19T15:01:17;32.40;99.90
32614;DHT22;19031;51.400;6.770;2022-08-19T15:03:43;32.20;99.90
32614;DHT22;19031;51.400;6.770;2022-08-19T15:06:09;32.10;99.90
32614;DHT22;19031;51.400;6.770;2022-08-19T15:08:37;32.10;99.90
32614;DHT22;19031;51.400;6.770;2022-08-19T15:11:11;32.10;99.90
32614;DHT22;19031;51.400;6.770;2022-08-19T15:13:39;32.10;99.90
32614;DHT22;19031;51.400;6.770;2022-08-19T15:16:05;32.00;99.90
32614;DHT22;19031;51.400;6.770;2022-08-19T15:18:31;32.20;99.90
32614;DHT22;19031;51.400;6.770;2022-08-19T15:20:58;32.30;99.90
32614;DHT22;19031;51.400;6.770;2022-08-19T15:23:25;32.30;99.90
32614;DHT22;19031;51.400;6.770;2022-08-19T15:25:51;32.50;99.90
32614;DHT22;19031;51.400;6.770;2022-08-19T15:28:21;32.20;99.90
32614;DHT22;19031;51.400;6.770;2022-08-19T15:30:47;32.20;99.90
32614;DHT22;19031;51.400;6.770;2022-08-19T15:33:13;32.10;99.90
32614;DHT22;19031;51.400;6.770;2022-08-19T15:35:46;32.00;99.90
32614;DHT22;19031;51.400;6.770;2022-08-19T15:38:12;32.20;99.90
32614;DHT22;19031;51.400;6.770;2022-08-19T15:40:39;32.30;99.90
32614;DHT22;19031;51.400;6.770;2022-08-19T15:43:06;32.00;99.90
32614;DHT22;19031;51.400;6.770;2022-08-19T15:45:32;32.00;99.90
32614;DHT22;19031;51.400;6.770;2022-08-19T15:47:59;31.70;99.90
32614;DHT22;19031;51.400;6.770;2022-08-19T15:50:25;31.90;99.90